createdAt,value
2016-11-20T00:00:38.142Z,996.71
2016-11-20T00:01:38.124Z,996.67
2016-11-20T00:02:38.106Z,996.71
2016-11-20T00:03:38.087Z,996.63
2016-11-20T00:04:38.073Z,996.57
2016-11-20T00:05:38.048Z,996.59
2016-11-20T00:06:38.029Z,996.6
2016-11-20T00:07:38.009Z,996.6
2016-11-20T00:08:37.990Z,996.58
2016-11-20T00:09:37.971Z,996.55
2016-11-20T00:10:37.951Z,996.56
2016-11-20T00:11:37.935Z,996.55
2016-11-20T00:12:37.915Z,996.5
2016-11-20T00:13:37.894Z,996.53
2016-11-20T00:14:37.876Z,996.52
2016-11-20T00:15:37.857Z,996.47
2016-11-20T00:16:37.839Z,996.45
2016-11-20T00:17:37.821Z,996.45
2016-11-20T00:18:37.803Z,996.42
2016-11-20T00:19:37.782Z,996.39
2016-11-20T00:20:37.768Z,996.39
2016-11-20T00:21:37.746Z,996.39
2016-11-20T00:22:37.726Z,996.34
2016-11-20T00:23:37.708Z,996.36
2016-11-20T00:24:37.690Z,996.36
2016-11-20T00:25:37.667Z,996.33
2016-11-20T00:26:37.650Z,996.33
2016-11-20T00:27:37.633Z,996.32
2016-11-20T00:28:37.611Z,996.3
2016-11-20T00:29:37.593Z,996.28
2016-11-20T00:30:37.574Z,996.26
2016-11-20T00:31:37.556Z,996.24
2016-11-20T00:32:37.537Z,996.21
2016-11-20T00:33:37.517Z,996.21
2016-11-20T00:34:37.500Z,996.17
2016-11-20T00:35:37.482Z,996.22
2016-11-20T00:36:37.461Z,996.18
2016-11-20T00:37:37.442Z,996.21
2016-11-20T00:38:37.426Z,996.17
2016-11-20T00:39:37.405Z,996.17
2016-11-20T00:40:37.385Z,996.16
2016-11-20T00:41:37.368Z,996.18
2016-11-20T00:42:37.351Z,996.18
2016-11-20T00:43:37.329Z,996.16
2016-11-20T00:44:37.311Z,996.11
2016-11-20T00:45:37.292Z,996.11
2016-11-20T00:46:37.272Z,996.09
2016-11-20T00:47:37.254Z,996.04
2016-11-20T00:48:37.235Z,996.06
2016-11-20T00:49:37.214Z,996.05
2016-11-20T00:50:37.197Z,996.09
2016-11-20T00:51:37.178Z,996.03
2016-11-20T00:52:37.159Z,995.99
2016-11-20T00:53:37.138Z,996.04
2016-11-20T00:54:37.121Z,996.03
2016-11-20T00:55:37.101Z,995.99
2016-11-20T00:56:37.084Z,995.99
2016-11-20T00:57:37.064Z,996
2016-11-20T00:58:37.046Z,995.98
2016-11-20T00:59:37.033Z,995.97
2016-11-20T01:00:37.009Z,995.92
2016-11-20T01:01:36.989Z,995.97
2016-11-20T01:02:36.971Z,995.96
2016-11-20T01:03:36.952Z,995.92
2016-11-20T01:04:36.932Z,995.9
2016-11-20T01:05:36.914Z,995.91
2016-11-20T01:06:36.894Z,995.87
2016-11-20T01:07:36.876Z,995.89
2016-11-20T01:08:36.855Z,995.85
2016-11-20T01:09:36.838Z,995.85
2016-11-20T01:10:36.818Z,995.83
2016-11-20T01:11:36.801Z,995.8
2016-11-20T01:12:36.782Z,995.82
2016-11-20T01:13:36.762Z,995.75
2016-11-20T01:14:36.745Z,995.73
2016-11-20T01:15:36.726Z,995.7
2016-11-20T01:16:36.706Z,995.73
2016-11-20T01:17:36.686Z,995.69
2016-11-20T01:18:36.670Z,995.7
2016-11-20T01:19:36.650Z,995.7
2016-11-20T01:20:36.632Z,995.74
2016-11-20T01:21:36.612Z,995.66
2016-11-20T01:22:36.593Z,995.68
2016-11-20T01:23:36.575Z,995.65
2016-11-20T01:24:36.559Z,995.63
2016-11-20T01:25:36.538Z,995.64
2016-11-20T01:26:36.518Z,995.62
2016-11-20T01:27:36.499Z,995.59
2016-11-20T01:28:36.480Z,995.59
2016-11-20T01:29:36.463Z,995.63
2016-11-20T01:30:36.443Z,995.65
2016-11-20T01:31:36.425Z,995.64
2016-11-20T01:32:36.408Z,995.62
2016-11-20T01:33:36.386Z,995.6
2016-11-20T01:34:36.369Z,995.63
2016-11-20T01:35:36.349Z,995.62
2016-11-20T01:36:36.331Z,995.56
2016-11-20T01:37:36.312Z,995.57
2016-11-20T01:38:36.293Z,995.54
2016-11-20T01:39:36.277Z,995.53
2016-11-20T01:40:36.460Z,995.52
2016-11-20T01:41:36.238Z,995.5
2016-11-20T01:42:36.219Z,995.47
2016-11-20T01:43:36.202Z,995.46
2016-11-20T01:44:36.182Z,995.43
2016-11-20T01:45:36.163Z,995.42
2016-11-20T01:46:36.144Z,995.32
2016-11-20T01:47:36.127Z,995.3
2016-11-20T01:48:36.119Z,995.26
2016-11-20T01:49:36.088Z,995.24
2016-11-20T01:50:36.071Z,995.18
2016-11-20T01:51:36.052Z,995.19
2016-11-20T01:52:36.033Z,995.14
2016-11-20T01:53:36.015Z,995.09
2016-11-20T01:54:35.997Z,995.08
2016-11-20T01:55:35.978Z,995.06
2016-11-20T01:56:35.961Z,995.01
2016-11-20T01:57:35.940Z,994.94
2016-11-20T01:58:35.923Z,994.91
2016-11-20T01:59:35.904Z,994.88
2016-11-20T02:00:35.935Z,994.9
2016-11-20T02:01:35.866Z,994.83
2016-11-20T02:02:35.851Z,994.8
2016-11-20T02:03:35.831Z,994.8
2016-11-20T02:04:35.817Z,994.75
2016-11-20T02:05:35.794Z,994.74
2016-11-20T02:06:35.774Z,994.74
2016-11-20T02:07:35.758Z,994.73
2016-11-20T02:08:35.739Z,994.71
2016-11-20T02:09:35.719Z,994.7
2016-11-20T02:10:35.700Z,994.71
2016-11-20T02:11:35.682Z,994.69
2016-11-20T02:12:35.665Z,994.7
2016-11-20T02:13:35.645Z,994.72
2016-11-20T02:14:35.627Z,994.75
2016-11-20T02:15:35.609Z,994.74
2016-11-20T02:16:35.608Z,994.79
2016-11-20T02:17:35.572Z,994.81
2016-11-20T02:18:35.556Z,994.78
2016-11-20T02:19:35.535Z,994.78
2016-11-20T02:20:35.520Z,994.79
2016-11-20T02:21:35.499Z,994.74
2016-11-20T02:22:35.480Z,994.74
2016-11-20T02:23:35.463Z,994.72
2016-11-20T02:24:35.445Z,994.66
2016-11-20T02:25:35.427Z,994.67
2016-11-20T02:26:35.407Z,994.69
2016-11-20T02:27:35.390Z,994.68
2016-11-20T02:28:35.370Z,994.66
2016-11-20T02:29:35.355Z,994.68
2016-11-20T02:30:35.335Z,994.65
2016-11-20T02:31:35.317Z,994.63
2016-11-20T02:32:35.298Z,994.54
2016-11-20T02:33:35.279Z,994.48
2016-11-20T02:34:35.260Z,994.46
2016-11-20T02:35:35.242Z,994.47
2016-11-20T02:36:35.223Z,994.49
2016-11-20T02:37:35.206Z,994.47
2016-11-20T02:38:35.187Z,994.47
2016-11-20T02:39:35.167Z,994.44
2016-11-20T02:40:35.151Z,994.41
2016-11-20T02:41:35.133Z,994.37
2016-11-20T02:42:35.117Z,994.33
2016-11-20T02:43:35.095Z,994.29
2016-11-20T02:44:35.078Z,994.28
2016-11-20T02:45:35.059Z,994.23
2016-11-20T02:46:35.040Z,994.22
2016-11-20T02:47:35.024Z,994.21
2016-11-20T02:48:35.003Z,994.14
2016-11-20T02:49:34.986Z,994.12
2016-11-20T02:50:34.969Z,994.1
2016-11-20T02:51:34.948Z,994.03
2016-11-20T02:52:34.930Z,994.05
2016-11-20T02:53:34.914Z,994.03
2016-11-20T02:54:34.892Z,993.98
2016-11-20T02:55:34.875Z,993.95
2016-11-20T02:56:34.856Z,993.96
2016-11-20T02:57:34.837Z,993.88
2016-11-20T02:58:34.819Z,993.86
2016-11-20T02:59:34.801Z,993.79
2016-11-20T03:00:34.786Z,993.83
2016-11-20T03:01:34.764Z,993.78
2016-11-20T03:02:34.747Z,993.81
2016-11-20T03:03:34.728Z,993.84
2016-11-20T03:04:34.710Z,993.87
2016-11-20T03:05:34.691Z,993.92
2016-11-20T03:06:34.675Z,993.9
2016-11-20T03:07:34.654Z,993.88
2016-11-20T03:08:34.636Z,993.89
2016-11-20T03:09:34.618Z,993.85
2016-11-20T03:10:34.599Z,993.87
2016-11-20T03:11:34.584Z,993.83
2016-11-20T03:12:34.567Z,993.79
2016-11-20T03:13:34.545Z,993.75
2016-11-20T03:14:34.525Z,993.7
2016-11-20T03:15:34.509Z,993.6
2016-11-20T03:16:34.490Z,993.63
2016-11-20T03:17:34.471Z,993.5
2016-11-20T03:18:34.452Z,993.38
2016-11-20T03:19:34.435Z,993.27
2016-11-20T03:20:34.417Z,993.22
2016-11-20T03:21:34.399Z,993.21
2016-11-20T03:22:34.379Z,993.31
2016-11-20T03:23:34.363Z,993.27
2016-11-20T03:24:34.344Z,993.29
2016-11-20T03:25:34.327Z,993.31
2016-11-20T03:26:34.307Z,993.33
2016-11-20T03:27:34.288Z,993.32
2016-11-20T03:28:34.271Z,993.36
2016-11-20T03:29:34.254Z,993.27
2016-11-20T03:30:34.232Z,993.3
2016-11-20T03:31:34.215Z,993.25
2016-11-20T03:32:34.197Z,993.23
2016-11-20T03:33:34.179Z,993.18
2016-11-20T03:34:34.159Z,993.15
2016-11-20T03:35:34.142Z,993.16
2016-11-20T03:36:34.126Z,993.11
2016-11-20T03:37:34.107Z,993.07
2016-11-20T03:38:34.089Z,993.09
2016-11-20T03:39:34.070Z,993.11
2016-11-20T03:40:34.252Z,993.11
2016-11-20T03:41:34.031Z,993.09
2016-11-20T03:42:34.012Z,993.12
2016-11-20T03:43:33.994Z,993.08
2016-11-20T03:44:33.978Z,993.06
2016-11-20T03:45:33.958Z,993.07
2016-11-20T03:46:33.941Z,993.04
2016-11-20T03:47:33.921Z,993.01
2016-11-20T03:48:33.904Z,992.99
2016-11-20T03:49:33.883Z,992.96
2016-11-20T03:50:33.867Z,992.89
2016-11-20T03:51:33.849Z,992.83
2016-11-20T03:52:33.837Z,992.8
2016-11-20T03:53:33.811Z,992.79
2016-11-20T03:54:33.793Z,992.73
2016-11-20T03:55:33.773Z,992.7
2016-11-20T03:56:33.755Z,992.64
2016-11-20T03:57:33.787Z,992.62
2016-11-20T03:58:33.719Z,992.63
2016-11-20T03:59:33.701Z,992.59
2016-11-20T04:00:33.682Z,992.62
2016-11-20T04:01:33.664Z,992.65
2016-11-20T04:02:33.646Z,992.69
2016-11-20T04:03:33.624Z,992.66
2016-11-20T04:04:33.610Z,992.62
2016-11-20T04:05:33.588Z,992.67
2016-11-20T04:06:33.571Z,992.66
2016-11-20T04:07:33.551Z,992.64
2016-11-20T04:08:33.532Z,992.59
2016-11-20T04:09:33.515Z,992.52
2016-11-20T04:10:33.495Z,992.54
2016-11-20T04:11:33.477Z,992.55
2016-11-20T04:12:33.457Z,992.51
2016-11-20T04:13:33.438Z,992.54
2016-11-20T04:14:33.421Z,992.55
2016-11-20T04:15:33.402Z,992.48
2016-11-20T04:16:33.385Z,992.48
2016-11-20T04:17:33.365Z,992.49
2016-11-20T04:18:33.345Z,992.44
2016-11-20T04:19:33.329Z,992.41
2016-11-20T04:20:33.311Z,992.41
2016-11-20T04:21:33.290Z,992.36
2016-11-20T04:22:33.272Z,992.38
2016-11-20T04:23:33.255Z,992.29
2016-11-20T04:24:33.235Z,992.29
2016-11-20T04:25:33.216Z,992.27
2016-11-20T04:26:33.198Z,992.25
2016-11-20T04:27:33.181Z,992.27
2016-11-20T04:28:33.161Z,992.21
2016-11-20T04:29:33.147Z,992.22
2016-11-20T04:30:33.125Z,992.19
2016-11-20T04:31:33.107Z,992.13
2016-11-20T04:32:33.087Z,992.13
2016-11-20T04:33:33.070Z,992.11
2016-11-20T04:34:33.050Z,992.12
2016-11-20T04:35:33.033Z,992.08
2016-11-20T04:36:33.015Z,992.04
2016-11-20T04:37:32.997Z,992.04
2016-11-20T04:38:32.984Z,991.97
2016-11-20T04:39:32.961Z,991.97
2016-11-20T04:40:32.944Z,991.91
2016-11-20T04:41:32.922Z,991.98
2016-11-20T04:42:32.906Z,991.89
2016-11-20T04:43:32.887Z,991.9
2016-11-20T04:44:32.866Z,991.86
2016-11-20T04:45:32.851Z,991.82
2016-11-20T04:46:32.829Z,991.77
2016-11-20T04:47:32.812Z,991.78
2016-11-20T04:48:32.800Z,991.67
2016-11-20T04:49:32.776Z,991.69
2016-11-20T04:50:32.756Z,991.66
2016-11-20T04:51:32.738Z,991.63
2016-11-20T04:52:32.720Z,991.61
2016-11-20T04:53:32.702Z,991.61
2016-11-20T04:54:32.683Z,991.57
2016-11-20T04:55:32.677Z,991.6
2016-11-20T04:56:32.647Z,991.51
2016-11-20T04:57:32.629Z,991.45
2016-11-20T04:58:32.610Z,991.48
2016-11-20T04:59:32.592Z,991.4
2016-11-20T05:00:32.573Z,991.4
2016-11-20T05:01:32.555Z,991.32
2016-11-20T05:02:32.544Z,991.27
2016-11-20T05:03:32.528Z,991.27
2016-11-20T05:04:32.501Z,991.22
2016-11-20T05:05:32.482Z,991.23
2016-11-20T05:06:32.463Z,991.22
2016-11-20T05:07:32.444Z,991.12
2016-11-20T05:08:32.428Z,991.12
2016-11-20T05:09:32.408Z,991.05
2016-11-20T05:10:32.390Z,991
2016-11-20T05:11:32.371Z,991.03
2016-11-20T05:12:32.351Z,990.96
2016-11-20T05:13:32.333Z,990.89
2016-11-20T05:14:32.316Z,990.9
2016-11-20T05:15:32.298Z,990.86
2016-11-20T05:16:32.280Z,990.85
2016-11-20T05:17:32.260Z,990.81
2016-11-20T05:18:32.244Z,990.79
2016-11-20T05:19:32.225Z,990.77
2016-11-20T05:20:32.206Z,990.81
2016-11-20T05:21:32.188Z,990.86
2016-11-20T05:22:32.170Z,990.94
2016-11-20T05:23:32.151Z,990.94
2016-11-20T05:24:32.133Z,990.82
2016-11-20T05:25:32.116Z,990.76
2016-11-20T05:26:32.100Z,990.74
2016-11-20T05:27:32.083Z,990.66
2016-11-20T05:28:32.062Z,990.54
2016-11-20T05:29:32.044Z,990.51
2016-11-20T05:30:32.027Z,990.42
2016-11-20T05:31:32.007Z,990.42
2016-11-20T05:32:31.988Z,990.39
2016-11-20T05:33:31.971Z,990.35
2016-11-20T05:34:31.951Z,990.38
2016-11-20T05:35:31.932Z,990.36
2016-11-20T05:36:31.916Z,990.31
2016-11-20T05:37:31.899Z,990.26
2016-11-20T05:38:31.877Z,990.3
2016-11-20T05:39:31.859Z,990.19
2016-11-20T05:40:32.046Z,990.13
2016-11-20T05:41:31.825Z,990.09
2016-11-20T05:42:31.807Z,990.07
2016-11-20T05:43:31.788Z,990.1
2016-11-20T05:44:31.770Z,990.03
2016-11-20T05:45:31.751Z,990
2016-11-20T05:46:31.733Z,990.04
2016-11-20T05:47:31.716Z,990.04
2016-11-20T05:48:31.698Z,990
2016-11-20T05:49:31.679Z,989.98
2016-11-20T05:50:31.662Z,990.03
2016-11-20T05:51:31.644Z,990.05
2016-11-20T05:52:31.626Z,990
2016-11-20T05:53:31.607Z,989.91
2016-11-20T05:54:31.590Z,989.85
2016-11-20T05:55:31.572Z,989.79
2016-11-20T05:56:31.551Z,989.73
2016-11-20T05:57:31.535Z,989.72
2016-11-20T05:58:31.517Z,989.73
2016-11-20T05:59:31.498Z,989.68
2016-11-20T06:00:31.481Z,989.54
2016-11-20T06:01:31.470Z,989.49
2016-11-20T06:02:31.445Z,989.44
2016-11-20T06:03:31.427Z,989.47
2016-11-20T06:04:31.410Z,989.39
2016-11-20T06:05:31.392Z,989.45
2016-11-20T06:06:31.374Z,989.36
2016-11-20T06:07:31.354Z,989.33
2016-11-20T06:08:31.336Z,989.26
2016-11-20T06:09:31.318Z,989.24
2016-11-20T06:10:31.305Z,989.26
2016-11-20T06:11:31.284Z,989.28
2016-11-20T06:12:31.268Z,989.25
2016-11-20T06:13:31.297Z,989.22
2016-11-20T06:14:31.233Z,989.16
2016-11-20T06:15:31.212Z,989.12
2016-11-20T06:16:31.194Z,989.09
2016-11-20T06:17:31.178Z,989.04
2016-11-20T06:18:31.160Z,989.02
2016-11-20T06:19:31.140Z,989
2016-11-20T06:20:31.125Z,988.84
2016-11-20T06:21:31.106Z,988.89
2016-11-20T06:22:31.088Z,988.9
2016-11-20T06:23:31.074Z,988.84
2016-11-20T06:24:31.053Z,988.83
2016-11-20T06:25:31.035Z,988.84
2016-11-20T06:26:31.017Z,988.74
2016-11-20T06:27:31.004Z,988.7
2016-11-20T06:28:30.983Z,988.71
2016-11-20T06:29:30.963Z,988.66
2016-11-20T06:30:30.945Z,988.59
2016-11-20T06:31:30.931Z,988.46
2016-11-20T06:32:30.912Z,988.33
2016-11-20T06:33:30.892Z,988.37
2016-11-20T06:34:30.876Z,988.43
2016-11-20T06:35:30.855Z,988.34
2016-11-20T06:36:30.840Z,988.35
2016-11-20T06:37:30.821Z,988.28
2016-11-20T06:38:30.802Z,988.16
2016-11-20T06:39:30.785Z,988.05
2016-11-20T06:40:30.767Z,988.05
2016-11-20T06:41:30.748Z,988.05
2016-11-20T06:42:30.734Z,988.02
2016-11-20T06:43:30.715Z,987.96
2016-11-20T06:44:30.696Z,988
2016-11-20T06:45:30.677Z,988.11
2016-11-20T06:46:30.660Z,988.12
2016-11-20T06:47:30.642Z,988.11
2016-11-20T06:48:30.623Z,988.05
2016-11-20T06:49:30.607Z,987.97
2016-11-20T06:50:30.593Z,987.9
2016-11-20T06:51:30.573Z,987.97
2016-11-20T06:52:30.553Z,987.9
2016-11-20T06:53:30.535Z,987.83
2016-11-20T06:54:30.518Z,987.79
2016-11-20T06:55:30.500Z,987.75
2016-11-20T06:56:30.483Z,987.77
2016-11-20T06:57:30.467Z,987.86
2016-11-20T06:58:30.449Z,987.67
2016-11-20T06:59:30.433Z,987.62
2016-11-20T07:00:30.413Z,987.73
2016-11-20T07:01:30.400Z,987.54
2016-11-20T07:02:30.377Z,987.51
2016-11-20T07:03:30.360Z,987.5
2016-11-20T07:04:30.345Z,987.42
2016-11-20T07:05:30.330Z,987.3
2016-11-20T07:06:30.311Z,987.34
2016-11-20T07:07:30.291Z,987.35
2016-11-20T07:08:30.272Z,987.28
2016-11-20T07:09:30.255Z,987.23
2016-11-20T07:10:30.239Z,987.17
2016-11-20T07:11:30.221Z,987.12
2016-11-20T07:12:30.205Z,987.11
2016-11-20T07:13:30.185Z,987.04
2016-11-20T07:14:30.170Z,987.19
2016-11-20T07:15:30.151Z,987.02
2016-11-20T07:16:30.134Z,986.99
2016-11-20T07:17:30.116Z,986.97
2016-11-20T07:18:30.099Z,987
2016-11-20T07:19:30.081Z,986.89
2016-11-20T07:20:30.063Z,986.88
2016-11-20T07:21:30.048Z,986.87
2016-11-20T07:22:30.029Z,986.85
2016-11-20T07:23:30.013Z,986.72
2016-11-20T07:24:29.996Z,986.58
2016-11-20T07:25:29.979Z,986.52
2016-11-20T07:26:29.960Z,986.53
2016-11-20T07:27:29.943Z,986.41
2016-11-20T07:28:29.925Z,986.53
2016-11-20T07:29:29.912Z,986.42
2016-11-20T07:30:29.893Z,986.47
2016-11-20T07:31:29.875Z,986.35
2016-11-20T07:32:29.858Z,986.34
2016-11-20T07:33:29.841Z,986.36
2016-11-20T07:34:29.823Z,986.34
2016-11-20T07:35:29.805Z,986.39
2016-11-20T07:36:29.788Z,986.22
2016-11-20T07:37:29.770Z,986.24
2016-11-20T07:38:29.753Z,986.21
2016-11-20T07:39:29.736Z,986.32
2016-11-20T07:40:29.718Z,986.36
2016-11-20T07:41:29.702Z,986.38
2016-11-20T07:42:29.685Z,986.36
2016-11-20T07:43:29.668Z,986.31
2016-11-20T07:44:29.650Z,986.35
2016-11-20T07:45:29.635Z,986.35
2016-11-20T07:46:29.616Z,986.33
2016-11-20T07:47:29.598Z,986.26
2016-11-20T07:48:29.586Z,986.22
2016-11-20T07:49:29.565Z,986.25
2016-11-20T07:50:29.547Z,986.32
2016-11-20T07:51:29.529Z,986.24
2016-11-20T07:52:29.513Z,986.15
2016-11-20T07:53:29.495Z,986.22
2016-11-20T07:54:29.479Z,986.23
2016-11-20T07:55:29.461Z,986.2
2016-11-20T07:56:29.447Z,986.04
2016-11-20T07:57:29.427Z,986.03
2016-11-20T07:58:29.411Z,985.92
2016-11-20T07:59:29.393Z,985.89
2016-11-20T08:00:29.376Z,985.79
2016-11-20T08:01:29.359Z,985.89
2016-11-20T08:02:29.342Z,985.99
2016-11-20T08:03:29.326Z,985.84
2016-11-20T08:04:29.310Z,985.87
2016-11-20T08:05:29.294Z,985.86
2016-11-20T08:06:29.275Z,985.85
2016-11-20T08:07:29.258Z,985.74
2016-11-20T08:08:29.239Z,985.8
2016-11-20T08:09:29.223Z,985.84
2016-11-20T08:10:29.207Z,985.79
2016-11-20T08:11:29.191Z,985.86
2016-11-20T08:12:29.172Z,985.72
2016-11-20T08:13:29.156Z,985.69
2016-11-20T08:14:29.139Z,985.7
2016-11-20T08:15:29.123Z,985.74
2016-11-20T08:16:29.105Z,985.88
2016-11-20T08:17:29.089Z,985.94
2016-11-20T08:18:29.074Z,985.94
2016-11-20T08:19:29.055Z,985.87
2016-11-20T08:20:29.037Z,985.91
2016-11-20T08:21:29.022Z,985.84
2016-11-20T08:22:29.004Z,985.85
2016-11-20T08:23:28.986Z,985.98
2016-11-20T08:24:28.970Z,986.08
2016-11-20T08:25:28.954Z,986.06
2016-11-20T08:26:28.937Z,986.03
2016-11-20T08:27:28.921Z,986.01
2016-11-20T08:28:28.906Z,985.9
2016-11-20T08:29:28.887Z,986.05
2016-11-20T08:30:28.870Z,985.98
2016-11-20T08:31:28.859Z,985.9
2016-11-20T08:32:28.836Z,985.89
2016-11-20T08:33:28.818Z,985.83
2016-11-20T08:34:28.803Z,985.82
2016-11-20T08:35:28.787Z,985.79
2016-11-20T08:36:28.769Z,985.81
2016-11-20T08:37:28.751Z,985.75
2016-11-20T08:38:28.736Z,985.8
2016-11-20T08:39:28.718Z,985.86
2016-11-20T08:40:28.702Z,985.78
2016-11-20T08:41:28.683Z,985.78
2016-11-20T08:42:28.667Z,985.6
2016-11-20T08:43:28.650Z,985.58
2016-11-20T08:44:28.631Z,985.64
2016-11-20T08:45:28.614Z,985.56
2016-11-20T08:46:28.597Z,985.57
2016-11-20T08:47:28.580Z,985.56
2016-11-20T08:48:28.563Z,985.65
2016-11-20T08:49:28.544Z,985.57
2016-11-20T08:50:28.527Z,985.51
2016-11-20T08:51:28.511Z,985.6
2016-11-20T08:52:28.491Z,985.59
2016-11-20T08:53:28.473Z,985.56
2016-11-20T08:54:28.457Z,985.44
2016-11-20T08:55:28.438Z,985.47
2016-11-20T08:56:28.420Z,985.57
2016-11-20T08:57:28.403Z,985.53
2016-11-20T08:58:28.397Z,985.5
2016-11-20T08:59:28.366Z,985.56
2016-11-20T09:00:28.348Z,985.48
2016-11-20T09:01:28.332Z,985.51
2016-11-20T09:02:28.313Z,985.39
2016-11-20T09:03:28.295Z,985.45
2016-11-20T09:04:28.277Z,985.44
2016-11-20T09:05:28.259Z,985.56
2016-11-20T09:06:28.241Z,985.53
2016-11-20T09:07:28.222Z,985.49
2016-11-20T09:08:28.207Z,985.3
2016-11-20T09:09:28.190Z,985.38
2016-11-20T09:10:28.171Z,985.44
2016-11-20T09:11:28.150Z,985.32
2016-11-20T09:12:28.131Z,985.41
2016-11-20T09:13:28.115Z,985.35
2016-11-20T09:14:28.095Z,985.29
2016-11-20T09:15:28.078Z,985.34
2016-11-20T09:16:28.060Z,985.29
2016-11-20T09:17:28.040Z,985.25
2016-11-20T09:18:28.021Z,985.14
2016-11-20T09:19:28.005Z,985.2
2016-11-20T09:20:27.986Z,985.38
2016-11-20T09:21:27.968Z,985.3
2016-11-20T09:22:27.949Z,985.2
2016-11-20T09:23:27.930Z,985.06
2016-11-20T09:24:27.912Z,985.19
2016-11-20T09:25:27.893Z,985.34
2016-11-20T09:26:27.875Z,985.24
2016-11-20T09:27:27.858Z,985.1
2016-11-20T09:28:27.838Z,985.2
2016-11-20T09:29:27.821Z,985.02
2016-11-20T09:30:27.803Z,985.17
2016-11-20T09:31:27.785Z,985.15
2016-11-20T09:32:27.772Z,985.25
2016-11-20T09:33:27.751Z,985.34
2016-11-20T09:34:27.732Z,985.37
2016-11-20T09:35:27.714Z,985.19
2016-11-20T09:36:27.694Z,985.17
2016-11-20T09:37:27.677Z,985.08
2016-11-20T09:38:27.660Z,984.97
2016-11-20T09:39:27.642Z,985.03
2016-11-20T09:40:27.624Z,984.94
2016-11-20T09:41:27.824Z,984.97
2016-11-20T09:42:27.591Z,984.98
2016-11-20T09:43:27.571Z,985.13
2016-11-20T09:44:27.556Z,985.03
2016-11-20T09:45:27.540Z,984.83
2016-11-20T09:46:27.522Z,984.84
2016-11-20T09:47:27.505Z,985.06
2016-11-20T09:48:27.488Z,984.89
2016-11-20T09:49:27.473Z,984.91
2016-11-20T09:50:27.457Z,985.23
2016-11-20T09:51:27.496Z,985.2
2016-11-20T09:52:27.421Z,985.14
2016-11-20T09:53:27.406Z,984.96
2016-11-20T09:54:27.389Z,984.86
2016-11-20T09:55:27.374Z,984.94
2016-11-20T09:56:27.358Z,985.04
2016-11-20T09:57:27.345Z,985.12
2016-11-20T09:58:27.325Z,985.07
2016-11-20T09:59:27.310Z,985.07
2016-11-20T10:00:27.296Z,984.96
2016-11-20T10:01:27.277Z,985.5
2016-11-20T10:02:27.261Z,985.1
2016-11-20T10:03:27.245Z,984.99
2016-11-20T10:04:27.231Z,984.93
2016-11-20T10:05:27.214Z,984.79
2016-11-20T10:06:27.196Z,984.92
2016-11-20T10:07:27.181Z,985.09
2016-11-20T10:08:27.164Z,985.03
2016-11-20T10:09:27.149Z,985.03
2016-11-20T10:10:27.135Z,984.96
2016-11-20T10:11:27.118Z,984.9
2016-11-20T10:12:27.099Z,985
2016-11-20T10:13:27.101Z,984.98
2016-11-20T10:14:27.071Z,985.08
2016-11-20T10:15:27.053Z,985.08
2016-11-20T10:16:27.038Z,984.84
2016-11-20T10:17:27.020Z,984.88
2016-11-20T10:18:27.008Z,984.86
2016-11-20T10:19:26.990Z,984.9
2016-11-20T10:20:26.976Z,984.89
2016-11-20T10:21:26.957Z,984.88
2016-11-20T10:22:26.945Z,985
2016-11-20T10:23:26.930Z,984.79
2016-11-20T10:24:26.911Z,984.87
2016-11-20T10:25:26.897Z,984.87
2016-11-20T10:26:26.879Z,984.68
2016-11-20T10:27:26.864Z,984.62
2016-11-20T10:28:26.852Z,984.65
2016-11-20T10:29:26.837Z,984.64
2016-11-20T10:30:26.852Z,984.62
2016-11-20T10:31:26.809Z,984.62
2016-11-20T10:32:26.790Z,984.55
2016-11-20T10:33:26.775Z,984.61
2016-11-20T10:34:26.763Z,984.5
2016-11-20T10:35:26.750Z,984.51
2016-11-20T10:36:26.731Z,984.58
2016-11-20T10:37:26.716Z,984.62
2016-11-20T10:38:26.702Z,984.39
2016-11-20T10:39:26.685Z,984.57
2016-11-20T10:40:26.671Z,984.61
2016-11-20T10:41:26.655Z,984.56
2016-11-20T10:42:26.642Z,984.65
2016-11-20T10:43:26.624Z,984.44
2016-11-20T10:44:26.609Z,984.41
2016-11-20T10:45:26.596Z,984.44
2016-11-20T10:46:26.580Z,984.56
2016-11-20T10:47:26.565Z,984.47
2016-11-20T10:48:26.550Z,984.6
2016-11-20T10:49:26.537Z,984.48
2016-11-20T10:50:26.519Z,984.39
2016-11-20T10:51:26.505Z,984.44
2016-11-20T10:52:26.489Z,984.44
2016-11-20T10:53:26.472Z,984.38
2016-11-20T10:54:26.459Z,984.41
2016-11-20T10:55:26.446Z,984.3
2016-11-20T10:56:26.429Z,984.31
2016-11-20T10:57:26.414Z,984.34
2016-11-20T10:58:26.400Z,984.3
2016-11-20T10:59:26.386Z,984.4
2016-11-20T11:00:26.370Z,984.3
2016-11-20T11:01:26.352Z,984.21
2016-11-20T11:02:26.338Z,984.37
2016-11-20T11:03:26.325Z,984.38
2016-11-20T11:04:26.308Z,984.29
2016-11-20T11:05:26.294Z,984.28
2016-11-20T11:06:26.280Z,984.42
2016-11-20T11:07:26.264Z,984.3
2016-11-20T11:08:26.249Z,984.38
2016-11-20T11:09:26.233Z,984.35
2016-11-20T11:10:26.221Z,984.26
2016-11-20T11:11:26.206Z,984.2
2016-11-20T11:12:26.192Z,984.42
2016-11-20T11:13:26.177Z,984.17
2016-11-20T11:14:26.163Z,984.34
2016-11-20T11:15:26.150Z,984.25
2016-11-20T11:16:26.138Z,984.3
2016-11-20T11:17:26.125Z,984.28
2016-11-20T11:18:26.113Z,984.27
2016-11-20T11:19:26.096Z,984.29
2016-11-20T11:20:26.082Z,984.12
2016-11-20T11:21:26.071Z,984.12
2016-11-20T11:22:26.058Z,984.25
2016-11-20T11:23:26.046Z,984.15
2016-11-20T11:24:26.033Z,984.21
2016-11-20T11:25:26.019Z,984.21
2016-11-20T11:26:26.007Z,984.14
2016-11-20T11:27:25.996Z,984.14
2016-11-20T11:28:25.983Z,984.07
2016-11-20T11:29:25.970Z,984.02
2016-11-20T11:30:25.958Z,983.97
2016-11-20T11:31:25.944Z,984
2016-11-20T11:32:25.932Z,984.05
2016-11-20T11:33:25.918Z,983.99
2016-11-20T11:34:25.905Z,984.04
2016-11-20T11:35:25.893Z,983.83
2016-11-20T11:36:25.883Z,984.03
2016-11-20T11:37:25.866Z,984.16
2016-11-20T11:38:26.036Z,984.09
2016-11-20T11:39:25.846Z,984.04
2016-11-20T11:40:25.878Z,984.05
2016-11-20T11:41:26.018Z,984.06
2016-11-20T11:42:25.802Z,984.16
2016-11-20T11:43:25.789Z,984.14
2016-11-20T11:44:25.775Z,984.05
2016-11-20T11:45:25.763Z,984.22
2016-11-20T11:46:25.749Z,984.13
2016-11-20T11:47:25.737Z,984.16
2016-11-20T11:48:25.724Z,984.22
2016-11-20T11:49:25.710Z,984.06
2016-11-20T11:50:25.700Z,984.23
2016-11-20T11:51:25.684Z,984.33
2016-11-20T11:52:25.672Z,984.4
2016-11-20T11:53:25.661Z,984.24
2016-11-20T11:54:25.647Z,984.32
2016-11-20T11:55:25.634Z,984.34
2016-11-20T11:56:25.622Z,984.22
2016-11-20T11:57:25.610Z,984.11
2016-11-20T11:58:25.599Z,984.09
2016-11-20T11:59:25.587Z,984.24
2016-11-20T12:00:25.576Z,984.06
2016-11-20T12:01:25.563Z,984.2
2016-11-20T12:02:25.549Z,984.39
2016-11-20T12:03:25.538Z,984.07
2016-11-20T12:04:25.527Z,984.24
2016-11-20T12:05:25.515Z,984.28
2016-11-20T12:06:25.503Z,984.13
2016-11-20T12:07:25.491Z,984.28
2016-11-20T12:08:25.482Z,984.2
2016-11-20T12:09:25.468Z,984.25
2016-11-20T12:10:25.456Z,984.29
2016-11-20T12:11:25.445Z,984.27
2016-11-20T12:12:25.432Z,984.41
2016-11-20T12:13:25.420Z,984.38
2016-11-20T12:14:25.406Z,984.28
2016-11-20T12:15:25.396Z,984.17
2016-11-20T12:16:25.382Z,984.8
2016-11-20T12:17:25.369Z,984.36
2016-11-20T12:18:25.359Z,984.39
2016-11-20T12:19:25.345Z,984.58
2016-11-20T12:20:25.346Z,984.53
2016-11-20T12:21:25.320Z,984.59
2016-11-20T12:22:25.307Z,984.64
2016-11-20T12:23:25.295Z,984.48
2016-11-20T12:24:25.281Z,984.43
2016-11-20T12:25:25.269Z,984.54
2016-11-20T12:26:25.258Z,984.61
2016-11-20T12:27:25.243Z,984.53
2016-11-20T12:28:25.230Z,984.53
2016-11-20T12:29:25.217Z,984.55
2016-11-20T12:30:25.207Z,984.62
2016-11-20T12:31:25.192Z,984.51